sensor_id;sensor_type;location;lat;lon;timestamp;temperature;humidity
4520;DHT22;2272;49.226;8.108;2022-10-12T00:00:43;8.80;99.90
4520;DHT22;2272;49.226;8.108;2022-10-12T00:03:11;8.70;99.90
4520;DHT22;2272;49.226;8.108;2022-10-12T00:05:38;8.70;99.90
4520;DHT22;2272;49.226;8.108;2022-10-12T00:08:05;8.60;99.90
4520;DHT22;2272;49.226;8.108;2022-10-12T00:10:31;8.50;99.90
4520;DHT22;2272;49.226;8.108;2022-10-12T00:12:58;8.50;99.90
4520;DHT22;2272;49.226;8.108;2022-10-12T00:15:26;8.40;99.90
4520;DHT22;2272;49.226;8.108;2022-10-12T00:17:52;8.40;99.90
4520;DHT22;2272;49.226;8.108;2022-10-12T00:20:21;8.40;99.90
4520;DHT22;2272;49.226;8.108;2022-10-12T00:22:47;8.40;99.90
4520;DHT22;2272;49.226;8.108;2022-10-12T00:25:14;8.30;99.90
4520;DHT22;2272;49.226;8.108;2022-10-12T00:27:41;8.30;99.90
4520;DHT22;2272;49.226;8.108;2022-10-12T00:30:09;8.30;99.90
4520;DHT22;2272;49.226;8.108;2022-10-12T00:32:36;8.30;99.90
4520;DHT22;2272;49.226;8.108;2022-10-12T00:35:03;8.30;99.90
4520;DHT22;2272;49.226;8.108;2022-10-12T00:37:31;8.30;99.90
4520;DHT22;2272;49.226;8.108;2022-10-12T00:39:58;8.20;99.90
4520;DHT22;2272;49.226;8.108;2022-10-12T00:42:24;8.20;99.90
4520;DHT22;2272;49.226;8.108;2022-10-12T00:44:51;8.10;99.90
4520;DHT22;2272;49.226;8.108;2022-10-12T00:47:22;8.00;99.90
4520;DHT22;2272;49.226;8.108;2022-10-12T00:49:53;8.00;99.90
4520;DHT22;2272;49.226;8.108;2022-10-12T00:52:23;8.00;99.90
4520;DHT22;2272;49.226;8.108;2022-10-12T00:54:53;7.90;99.90
4520;DHT22;2272;49.226;8.108;2022-10-12T00:57:21;7.90;99.90
4520;DHT22;2272;49.226;8.108;2022-10-12T00:59:52;7.90;99.90
4520;DHT22;2272;49.226;8.108;2022-10-12T01:02:20;7.90;99.90
4520;DHT22;2272;49.226;8.108;2022-10-12T01:05:18;7.90;99.90
4520;DHT22;2272;49.226;8.108;2022-10-12T01:07:45;7.90;99.90
4520;DHT22;2272;49.226;8.108;2022-10-12T01:10:13;7.80;99.90
4520;DHT22;2272;49.226;8.108;2022-10-12T01:12:41;7.80;99.90
4520;DHT22;2272;49.226;8.108;2022-10-12T01:15:10;7.80;99.90
4520;DHT22;2272;49.226;8.108;2022-10-12T01:17:42;7.70;99.90
4520;DHT22;2272;49.226;8.108;2022-10-12T01:27:00;7.80;99.90
4520;DHT22;2272;49.226;8.108;2022-10-12T01:30:01;7.80;99.90
4520;DHT22;2272;49.226;8.108;2022-10-12T01:32:32;7.80;99.90
4520;DHT22;2272;49.226;8.108;2022-10-12T01:35:06;7.90;99.90
4520;DHT22;2272;49.226;8.108;2022-10-12T01:37:43;7.90;99.90
4520;DHT22;2272;49.226;8.108;2022-10-12T01:40:15;7.90;99.90
4520;DHT22;2272;49.226;8.108;2022-10-12T01:42:44;7.90;99.90
4520;DHT22;2272;49.226;8.108;2022-10-12T01:45:16;8.00;99.90
4520;DHT22;2272;49.226;8.108;2022-10-12T01:47:45;8.00;99.90
4520;DHT22;2272;49.226;8.108;2022-10-12T01:50:14;8.00;99.90
4520;DHT22;2272;49.226;8.108;2022-10-12T01:52:46;8.10;99.90
4520;DHT22;2272;49.226;8.108;2022-10-12T01:55:27;8.10;99.90
4520;DHT22;2272;49.226;8.108;2022-10-12T01:58:08;8.10;99.90
4520;DHT22;2272;49.226;8.108;2022-10-12T02:00:42;8.10;99.90
4520;DHT22;2272;49.226;8.108;2022-10-12T02:03:17;8.10;99.90
4520;DHT22;2272;49.226;8.108;2022-10-12T02:05:49;8.10;99.90
4520;DHT22;2272;49.226;8.108;2022-10-12T02:08:21;8.00;99.90
4520;DHT22;2272;49.226;8.108;2022-10-12T02:10:54;8.00;99.90
4520;DHT22;2272;49.226;8.108;2022-10-12T02:13:25;8.00;99.90
4520;DHT22;2272;49.226;8.108;2022-10-12T02:15:57;8.10;99.90
4520;DHT22;2272;49.226;8.108;2022-10-12T02:18:26;8.20;99.90
4520;DHT22;2272;49.226;8.108;2022-10-12T02:20:55;8.30;99.90
4520;DHT22;2272;49.226;8.108;2022-10-12T02:23:24;8.40;99.90
4520;DHT22;2272;49.226;8.108;2022-10-12T02:25:52;8.50;99.90
4520;DHT22;2272;49.226;8.108;2022-10-12T02:28:23;8.50;99.90
4520;DHT22;2272;49.226;8.108;2022-10-12T02:30:59;8.60;99.90
4520;DHT22;2272;49.226;8.108;2022-10-12T02:33:31;8.60;99.90
4520;DHT22;2272;49.226;8.108;2022-10-12T02:36:01;8.60;99.90
4520;DHT22;2272;49.226;8.108;2022-10-12T02:38:33;8.70;99.90
4520;DHT22;2272;49.226;8.108;2022-10-12T02:41:04;8.60;99.90
4520;DHT22;2272;49.226;8.108;2022-10-12T02:43:36;8.60;99.90
4520;DHT22;2272;49.226;8.108;2022-10-12T02:46:07;8.60;99.90
4520;DHT22;2272;49.226;8.108;2022-10-12T02:48:36;8.60;99.90
4520;DHT22;2272;49.226;8.108;2022-10-12T02:51:05;8.70;99.90
4520;DHT22;2272;49.226;8.108;2022-10-12T02:53:33;8.70;99.90
4520;DHT22;2272;49.226;8.108;2022-10-12T02:56:02;8.70;99.90
4520;DHT22;2272;49.226;8.108;2022-10-12T02:58:29;8.70;99.90
4520;DHT22;2272;49.226;8.108;2022-10-12T03:00:56;8.80;99.90
4520;DHT22;2272;49.226;8.108;2022-10-12T03:03:24;8.80;99.90
4520;DHT22;2272;49.226;8.108;2022-10-12T03:05:51;8.80;99.90
4520;DHT22;2272;49.226;8.108;2022-10-12T03:08:18;8.80;99.90
4520;DHT22;2272;49.226;8.108;2022-10-12T03:10:45;8.80;99.90
4520;DHT22;2272;49.226;8.108;2022-10-12T03:13:12;8.80;99.90
4520;DHT22;2272;49.226;8.108;2022-10-12T03:15:40;8.80;99.90
4520;DHT22;2272;49.226;8.108;2022-10-12T03:18:06;8.90;99.90
4520;DHT22;2272;49.226;8.108;2022-10-12T03:20:35;8.90;99.90
4520;DHT22;2272;49.226;8.108;2022-10-12T03:23:02;8.90;99.90
4520;DHT22;2272;49.226;8.108;2022-10-12T03:25:28;8.90;99.90
4520;DHT22;2272;49.226;8.108;2022-10-12T03:27:55;8.90;99.90
4520;DHT22;2272;49.226;8.108;2022-10-12T03:30:22;9.00;99.90
4520;DHT22;2272;49.226;8.108;2022-10-12T03:32:49;9.00;99.90
4520;DHT22;2272;49.226;8.108;2022-10-12T03:35:16;9.00;99.90
4520;DHT22;2272;49.226;8.108;2022-10-12T03:37:44;9.00;99.90
4520;DHT22;2272;49.226;8.108;2022-10-12T03:40:11;9.00;99.90
4520;DHT22;2272;49.226;8.108;2022-10-12T03:42:38;9.00;99.90
4520;DHT22;2272;49.226;8.108;2022-10-12T03:45:05;8.90;99.90
4520;DHT22;2272;49.226;8.108;2022-10-12T03:47:32;8.90;99.90
4520;DHT22;2272;49.226;8.108;2022-10-12T03:49:59;8.90;99.90
4520;DHT22;2272;49.226;8.108;2022-10-12T03:52:25;8.90;99.90
4520;DHT22;2272;49.226;8.108;2022-10-12T03:54:54;8.90;99.90
4520;DHT22;2272;49.226;8.108;2022-10-12T03:57:21;9.00;99.90
4520;DHT22;2272;49.226;8.108;2022-10-12T03:59:47;9.00;99.90
4520;DHT22;2272;49.226;8.108;2022-10-12T04:02:14;9.00;99.90
4520;DHT22;2272;49.226;8.108;2022-10-12T04:04:41;9.10;99.90
4520;DHT22;2272;49.226;8.108;2022-10-12T04:07:07;9.00;99.90
4520;DHT22;2272;49.226;8.108;2022-10-12T04:09:34;9.10;99.90
4520;DHT22;2272;49.226;8.108;2022-10-12T04:12:03;9.10;99.90
4520;DHT22;2272;49.226;8.108;2022-10-12T04:14:29;9.10;99.90
4520;DHT22;2272;49.226;8.108;2022-10-12T04:16:56;9.10;99.90
4520;DHT22;2272;49.226;8.108;2022-10-12T04:19:23;9.10;99.90
4520;DHT22;2272;49.226;8.108;2022-10-12T04:21:49;9.10;99.90
4520;DHT22;2272;49.226;8.108;2022-10-12T04:24:16;9.10;99.90
4520;DHT22;2272;49.226;8.108;2022-10-12T04:26:43;9.10;99.90
4520;DHT22;2272;49.226;8.108;2022-10-12T04:29:12;9.10;99.90
4520;DHT22;2272;49.226;8.108;2022-10-12T04:31:39;9.10;99.90
4520;DHT22;2272;49.226;8.108;2022-10-12T04:34:05;9.10;99.90
4520;DHT22;2272;49.226;8.108;2022-10-12T04:36:32;9.10;99.90
4520;DHT22;2272;49.226;8.108;2022-10-12T04:38:59;9.20;99.90
4520;DHT22;2272;49.226;8.108;2022-10-12T04:41:26;9.10;99.90
4520;DHT22;2272;49.226;8.108;2022-10-12T04:43:52;9.10;99.90
4520;DHT22;2272;49.226;8.108;2022-10-12T04:46:20;9.10;99.90
4520;DHT22;2272;49.226;8.108;2022-10-12T04:48:47;9.10;99.90
4520;DHT22;2272;49.226;8.108;2022-10-12T04:51:14;9.00;99.90
4520;DHT22;2272;49.226;8.108;2022-10-12T04:53:41;9.00;99.90
4520;DHT22;2272;49.226;8.108;2022-10-12T04:56:08;9.00;99.90
4520;DHT22;2272;49.226;8.108;2022-10-12T04:58:35;9.10;99.90
4520;DHT22;2272;49.226;8.108;2022-10-12T05:01:02;9.00;99.90
4520;DHT22;2272;49.226;8.108;2022-10-12T05:03:30;9.00;99.90
4520;DHT22;2272;49.226;8.108;2022-10-12T05:05:56;9.00;99.90
4520;DHT22;2272;49.226;8.108;2022-10-12T05:08:23;9.00;99.90
4520;DHT22;2272;49.226;8.108;2022-10-12T05:10:50;9.00;99.90
4520;DHT22;2272;49.226;8.108;2022-10-12T05:13:17;9.00;99.90
4520;DHT22;2272;49.226;8.108;2022-10-12T05:15:44;9.00;99.90
4520;DHT22;2272;49.226;8.108;2022-10-12T05:18:11;9.00;99.90
4520;DHT22;2272;49.226;8.108;2022-10-12T05:20:39;9.00;99.90
4520;DHT22;2272;49.226;8.108;2022-10-12T05:23:05;9.00;99.90
4520;DHT22;2272;49.226;8.108;2022-10-12T05:25:32;9.00;99.90
4520;DHT22;2272;49.226;8.108;2022-10-12T05:27:59;9.00;99.90
4520;DHT22;2272;49.226;8.108;2022-10-12T05:30:26;9.00;99.90
4520;DHT22;2272;49.226;8.108;2022-10-12T05:32:53;9.00;99.90
4520;DHT22;2272;49.226;8.108;2022-10-12T05:35:20;9.00;99.90
4520;DHT22;2272;49.226;8.108;2022-10-12T05:37:48;9.00;99.90
4520;DHT22;2272;49.226;8.108;2022-10-12T05:40:15;9.00;99.90
4520;DHT22;2272;49.226;8.108;2022-10-12T05:42:42;9.00;99.90
4520;DHT22;2272;49.226;8.108;2022-10-12T05:45:10;9.00;99.90
4520;DHT22;2272;49.226;8.108;2022-10-12T05:47:37;9.10;99.90
4520;DHT22;2272;49.226;8.108;2022-10-12T05:50:04;9.10;99.90
4520;DHT22;2272;49.226;8.108;2022-10-12T05:52:31;9.10;99.90
4520;DHT22;2272;49.226;8.108;2022-10-12T05:54:59;9.10;99.90
4520;DHT22;2272;49.226;8.108;2022-10-12T05:57:26;9.00;99.90
4520;DHT22;2272;49.226;8.108;2022-10-12T05:59:53;9.00;99.90
4520;DHT22;2272;49.226;8.108;2022-10-12T06:02:19;9.00;99.90
4520;DHT22;2272;49.226;8.108;2022-10-12T06:04:46;9.00;99.90
4520;DHT22;2272;49.226;8.108;2022-10-12T06:07:13;9.00;99.90
4520;DHT22;2272;49.226;8.108;2022-10-12T06:09:40;9.00;99.90
4520;DHT22;2272;49.226;8.108;2022-10-12T06:12:10;9.10;99.90
4520;DHT22;2272;49.226;8.108;2022-10-12T06:14:37;9.10;99.90
4520;DHT22;2272;49.226;8.108;2022-10-12T06:17:04;9.10;99.90
4520;DHT22;2272;49.226;8.108;2022-10-12T06:19:31;9.20;99.90
4520;DHT22;2272;49.226;8.108;2022-10-12T06:21:58;9.20;99.90
4520;DHT22;2272;49.226;8.108;2022-10-12T06:24:24;9.20;99.90
4520;DHT22;2272;49.226;8.108;2022-10-12T06:26:51;9.30;99.90
4520;DHT22;2272;49.226;8.108;2022-10-12T06:29:19;9.30;99.90
4520;DHT22;2272;49.226;8.108;2022-10-12T06:31:47;9.40;99.90
4520;DHT22;2272;49.226;8.108;2022-10-12T06:34:14;9.50;99.90
4520;DHT22;2272;49.226;8.108;2022-10-12T06:36:41;9.60;99.90
4520;DHT22;2272;49.226;8.108;2022-10-12T06:39:08;9.70;99.90
4520;DHT22;2272;49.226;8.108;2022-10-12T06:41:35;9.80;99.90
4520;DHT22;2272;49.226;8.108;2022-10-12T06:44:02;9.80;99.90
4520;DHT22;2272;49.226;8.108;2022-10-12T06:46:30;9.90;99.90
4520;DHT22;2272;49.226;8.108;2022-10-12T06:48:57;9.90;99.90
4520;DHT22;2272;49.226;8.108;2022-10-12T06:51:24;9.90;99.90
4520;DHT22;2272;49.226;8.108;2022-10-12T06:53:53;9.90;99.90
4520;DHT22;2272;49.226;8.108;2022-10-12T06:56:20;10.00;99.90
4520;DHT22;2272;49.226;8.108;2022-10-12T06:58:46;10.00;99.90
4520;DHT22;2272;49.226;8.108;2022-10-12T07:01:13;10.00;99.90
4520;DHT22;2272;49.226;8.108;2022-10-12T07:03:42;10.00;99.90
4520;DHT22;2272;49.226;8.108;2022-10-12T07:06:10;9.90;99.90
4520;DHT22;2272;49.226;8.108;2022-10-12T07:08:38;9.90;99.90
4520;DHT22;2272;49.226;8.108;2022-10-12T07:11:09;9.90;99.90
4520;DHT22;2272;49.226;8.108;2022-10-12T07:13:36;9.90;99.90
4520;DHT22;2272;49.226;8.108;2022-10-12T07:16:03;10.00;99.90
4520;DHT22;2272;49.226;8.108;2022-10-12T07:18:30;10.10;99.90
4520;DHT22;2272;49.226;8.108;2022-10-12T07:20:59;10.40;99.90
4520;DHT22;2272;49.226;8.108;2022-10-12T07:23:27;10.50;99.90
4520;DHT22;2272;49.226;8.108;2022-10-12T07:25:54;10.70;99.90
4520;DHT22;2272;49.226;8.108;2022-10-12T07:28:21;10.70;99.90
4520;DHT22;2272;49.226;8.108;2022-10-12T07:30:48;10.80;99.90
4520;DHT22;2272;49.226;8.108;2022-10-12T07:33:15;10.90;99.90
4520;DHT22;2272;49.226;8.108;2022-10-12T07:35:52;11.10;99.90
4520;DHT22;2272;49.226;8.108;2022-10-12T07:38:21;11.20;99.90
4520;DHT22;2272;49.226;8.108;2022-10-12T07:40:47;11.30;99.90
4520;DHT22;2272;49.226;8.108;2022-10-12T07:43:14;11.30;99.90
4520;DHT22;2272;49.226;8.108;2022-10-12T07:45:41;11.50;99.90
4520;DHT22;2272;49.226;8.108;2022-10-12T07:48:08;11.60;99.90
4520;DHT22;2272;49.226;8.108;2022-10-12T07:50:35;11.70;99.90
4520;DHT22;2272;49.226;8.108;2022-10-12T07:53:02;11.80;99.90
4520;DHT22;2272;49.226;8.108;2022-10-12T07:55:30;12.00;99.90
4520;DHT22;2272;49.226;8.108;2022-10-12T08:00:25;12.40;99.90
4520;DHT22;2272;49.226;8.108;2022-10-12T08:02:51;12.50;99.90
4520;DHT22;2272;49.226;8.108;2022-10-12T08:05:18;12.60;99.90
4520;DHT22;2272;49.226;8.108;2022-10-12T08:07:47;12.70;99.90
4520;DHT22;2272;49.226;8.108;2022-10-12T08:10:14;12.80;99.90
4520;DHT22;2272;49.226;8.108;2022-10-12T08:12:43;12.90;99.90
4520;DHT22;2272;49.226;8.108;2022-10-12T08:15:10;12.80;99.90
4520;DHT22;2272;49.226;8.108;2022-10-12T08:17:37;12.60;99.90
4520;DHT22;2272;49.226;8.108;2022-10-12T08:20:06;12.40;99.90
4520;DHT22;2272;49.226;8.108;2022-10-12T08:22:32;12.20;99.90
4520;DHT22;2272;49.226;8.108;2022-10-12T08:24:59;12.20;99.90
4520;DHT22;2272;49.226;8.108;2022-10-12T08:27:28;12.30;99.90
4520;DHT22;2272;49.226;8.108;2022-10-12T08:29:57;12.40;99.90
4520;DHT22;2272;49.226;8.108;2022-10-12T08:32:24;12.50;99.90
4520;DHT22;2272;49.226;8.108;2022-10-12T08:34:50;12.70;99.90
4520;DHT22;2272;49.226;8.108;2022-10-12T08:37:17;13.00;99.90
4520;DHT22;2272;49.226;8.108;2022-10-12T08:39:44;13.10;99.90
4520;DHT22;2272;49.226;8.108;2022-10-12T08:42:21;13.20;99.90
4520;DHT22;2272;49.226;8.108;2022-10-12T08:45:02;13.40;99.90
4520;DHT22;2272;49.226;8.108;2022-10-12T08:47:39;13.60;99.90
4520;DHT22;2272;49.226;8.108;2022-10-12T08:50:13;13.90;99.90
4520;DHT22;2272;49.226;8.108;2022-10-12T08:52:47;14.00;99.90
4520;DHT22;2272;49.226;8.108;2022-10-12T08:55:22;14.30;99.90
4520;DHT22;2272;49.226;8.108;2022-10-12T08:57:50;14.50;99.90
4520;DHT22;2272;49.226;8.108;2022-10-12T09:00:19;14.70;99.90
4520;DHT22;2272;49.226;8.108;2022-10-12T09:02:54;15.00;99.90
4520;DHT22;2272;49.226;8.108;2022-10-12T09:05:26;15.30;99.90
4520;DHT22;2272;49.226;8.108;2022-10-12T09:07:56;15.30;99.90
4520;DHT22;2272;49.226;8.108;2022-10-12T09:10:32;15.30;99.90
4520;DHT22;2272;49.226;8.108;2022-10-12T09:13:13;15.40;99.90
4520;DHT22;2272;49.226;8.108;2022-10-12T09:15:48;15.50;99.90
4520;DHT22;2272;49.226;8.108;2022-10-12T09:18:18;15.80;99.90
4520;DHT22;2272;49.226;8.108;2022-10-12T09:20:48;15.70;99.90
4520;DHT22;2272;49.226;8.108;2022-10-12T09:23:22;15.70;99.90
4520;DHT22;2272;49.226;8.108;2022-10-12T09:25:50;15.90;99.90
4520;DHT22;2272;49.226;8.108;2022-10-12T09:28:19;16.00;99.90
4520;DHT22;2272;49.226;8.108;2022-10-12T09:30:58;16.10;99.90
4520;DHT22;2272;49.226;8.108;2022-10-12T09:33:28;16.30;99.90
4520;DHT22;2272;49.226;8.108;2022-10-12T09:35:58;16.40;99.90
4520;DHT22;2272;49.226;8.108;2022-10-12T09:38:25;16.40;99.90
4520;DHT22;2272;49.226;8.108;2022-10-12T09:40:52;16.50;99.90
4520;DHT22;2272;49.226;8.108;2022-10-12T09:43:18;16.60;99.90
4520;DHT22;2272;49.226;8.108;2022-10-12T09:45:45;16.70;99.90
4520;DHT22;2272;49.226;8.108;2022-10-12T09:48:17;16.70;99.90
4520;DHT22;2272;49.226;8.108;2022-10-12T09:50:48;16.80;99.90
4520;DHT22;2272;49.226;8.108;2022-10-12T09:53:23;16.90;99.90
4520;DHT22;2272;49.226;8.108;2022-10-12T09:55:57;17.00;99.90
4520;DHT22;2272;49.226;8.108;2022-10-12T09:58:26;17.00;99.90
4520;DHT22;2272;49.226;8.108;2022-10-12T10:01:17;17.10;99.90
4520;DHT22;2272;49.226;8.108;2022-10-12T10:03:49;17.10;99.90
4520;DHT22;2272;49.226;8.108;2022-10-12T10:06:22;17.10;99.90
4520;DHT22;2272;49.226;8.108;2022-10-12T10:08:50;17.20;99.90
4520;DHT22;2272;49.226;8.108;2022-10-12T10:11:20;17.20;99.90
4520;DHT22;2272;49.226;8.108;2022-10-12T10:13:50;17.10;99.90
4520;DHT22;2272;49.226;8.108;2022-10-12T10:16:19;17.10;99.90
4520;DHT22;2272;49.226;8.108;2022-10-12T10:18:54;16.90;99.90
4520;DHT22;2272;49.226;8.108;2022-10-12T10:21:27;16.80;99.90
4520;DHT22;2272;49.226;8.108;2022-10-12T10:23:56;16.50;99.90
4520;DHT22;2272;49.226;8.108;2022-10-12T10:26:24;16.40;99.90
4520;DHT22;2272;49.226;8.108;2022-10-12T10:28:55;16.30;99.90
4520;DHT22;2272;49.226;8.108;2022-10-12T10:31:25;16.20;99.90
4520;DHT22;2272;49.226;8.108;2022-10-12T10:34:20;16.20;99.90
4520;DHT22;2272;49.226;8.108;2022-10-12T10:36:49;16.10;99.90
4520;DHT22;2272;49.226;8.108;2022-10-12T10:39:19;16.00;99.90
4520;DHT22;2272;49.226;8.108;2022-10-12T10:42:07;15.90;99.90
4520;DHT22;2272;49.226;8.108;2022-10-12T10:44:35;15.90;99.90
4520;DHT22;2272;49.226;8.108;2022-10-12T10:47:06;16.00;99.90
4520;DHT22;2272;49.226;8.108;2022-10-12T10:49:38;16.00;99.90
4520;DHT22;2272;49.226;8.108;2022-10-12T10:52:07;16.10;99.90
4520;DHT22;2272;49.226;8.108;2022-10-12T10:54:35;16.10;99.90
4520;DHT22;2272;49.226;8.108;2022-10-12T10:57:08;16.10;99.90
4520;DHT22;2272;49.226;8.108;2022-10-12T10:59:42;16.20;99.90
4520;DHT22;2272;49.226;8.108;2022-10-12T11:02:27;16.30;99.90
4520;DHT22;2272;49.226;8.108;2022-10-12T11:05:04;16.40;99.90
4520;DHT22;2272;49.226;8.108;2022-10-12T11:07:36;16.50;99.90
4520;DHT22;2272;49.226;8.108;2022-10-12T11:10:13;16.60;99.90
4520;DHT22;2272;49.226;8.108;2022-10-12T11:12:44;16.50;99.90
4520;DHT22;2272;49.226;8.108;2022-10-12T11:15:17;16.50;99.90
4520;DHT22;2272;49.226;8.108;2022-10-12T11:17:48;16.50;99.90
4520;DHT22;2272;49.226;8.108;2022-10-12T11:20:33;16.50;99.90
4520;DHT22;2272;49.226;8.108;2022-10-12T11:23:07;16.50;99.90
4520;DHT22;2272;49.226;8.108;2022-10-12T11:25:38;16.60;99.90
4520;DHT22;2272;49.226;8.108;2022-10-12T11:28:07;16.70;99.90
4520;DHT22;2272;49.226;8.108;2022-10-12T11:30:39;16.80;99.90
4520;DHT22;2272;49.226;8.108;2022-10-12T11:33:11;17.00;99.90
4520;DHT22;2272;49.226;8.108;2022-10-12T11:35:43;17.10;99.90
4520;DHT22;2272;49.226;8.108;2022-10-12T11:38:15;17.20;99.90
4520;DHT22;2272;49.226;8.108;2022-10-12T11:40:46;17.20;99.90
4520;DHT22;2272;49.226;8.108;2022-10-12T11:43:18;17.20;99.90
4520;DHT22;2272;49.226;8.108;2022-10-12T11:45:48;17.20;99.90
4520;DHT22;2272;49.226;8.108;2022-10-12T11:48:19;17.20;99.90
4520;DHT22;2272;49.226;8.108;2022-10-12T11:50:49;17.30;99.90
4520;DHT22;2272;49.226;8.108;2022-10-12T11:53:20;17.30;99.90
4520;DHT22;2272;49.226;8.108;2022-10-12T11:56:03;17.40;99.90
4520;DHT22;2272;49.226;8.108;2022-10-12T11:58:35;17.50;99.90
4520;DHT22;2272;49.226;8.108;2022-10-12T12:01:24;17.60;99.90
4520;DHT22;2272;49.226;8.108;2022-10-12T12:04:11;17.70;99.90
4520;DHT22;2272;49.226;8.108;2022-10-12T12:06:48;17.70;99.90
4520;DHT22;2272;49.226;8.108;2022-10-12T12:09:21;17.80;99.90
4520;DHT22;2272;49.226;8.108;2022-10-12T12:12:11;17.80;99.90
4520;DHT22;2272;49.226;8.108;2022-10-12T12:15:05;17.80;99.90
4520;DHT22;2272;49.226;8.108;2022-10-12T12:17:33;18.00;99.90
4520;DHT22;2272;49.226;8.108;2022-10-12T12:20:01;18.00;99.90
4520;DHT22;2272;49.226;8.108;2022-10-12T12:22:47;18.00;99.90
4520;DHT22;2272;49.226;8.108;2022-10-12T12:25:18;18.10;99.90
4520;DHT22;2272;49.226;8.108;2022-10-12T12:27:48;18.20;99.90
4520;DHT22;2272;49.226;8.108;2022-10-12T12:30:29;18.30;99.90
4520;DHT22;2272;49.226;8.108;2022-10-12T12:32:59;18.40;99.90
4520;DHT22;2272;49.226;8.108;2022-10-12T12:35:34;18.40;99.90
4520;DHT22;2272;49.226;8.108;2022-10-12T12:38:23;18.20;99.90
4520;DHT22;2272;49.226;8.108;2022-10-12T12:40:58;18.20;99.90
4520;DHT22;2272;49.226;8.108;2022-10-12T12:46:19;18.40;99.90
4520;DHT22;2272;49.226;8.108;2022-10-12T12:49:00;18.40;99.90
4520;DHT22;2272;49.226;8.108;2022-10-12T12:51:38;18.60;99.90
4520;DHT22;2272;49.226;8.108;2022-10-12T12:54:14;18.70;99.90
4520;DHT22;2272;49.226;8.108;2022-10-12T12:57:01;18.80;99.90
4520;DHT22;2272;49.226;8.108;2022-10-12T13:05:58;19.00;99.90
4520;DHT22;2272;49.226;8.108;2022-10-12T13:08:38;19.00;99.90
4520;DHT22;2272;49.226;8.108;2022-10-12T13:11:32;19.00;99.90
4520;DHT22;2272;49.226;8.108;2022-10-12T13:14:11;19.10;99.90
4520;DHT22;2272;49.226;8.108;2022-10-12T13:16:52;19.00;99.90
4520;DHT22;2272;49.226;8.108;2022-10-12T13:19:21;19.00;99.90
4520;DHT22;2272;49.226;8.108;2022-10-12T13:21:50;18.90;99.90
4520;DHT22;2272;49.226;8.108;2022-10-12T13:24:21;18.90;99.90
4520;DHT22;2272;49.226;8.108;2022-10-12T13:26:51;18.90;99.90
4520;DHT22;2272;49.226;8.108;2022-10-12T13:29:21;19.00;99.90
4520;DHT22;2272;49.226;8.108;2022-10-12T13:31:53;19.10;99.90
4520;DHT22;2272;49.226;8.108;2022-10-12T13:34:26;19.10;99.90
4520;DHT22;2272;49.226;8.108;2022-10-12T13:36:57;19.20;99.90
4520;DHT22;2272;49.226;8.108;2022-10-12T13:39:26;19.20;99.90
4520;DHT22;2272;49.226;8.108;2022-10-12T13:41:57;19.30;99.90
4520;DHT22;2272;49.226;8.108;2022-10-12T13:44:26;19.30;99.90
4520;DHT22;2272;49.226;8.108;2022-10-12T13:46:54;19.40;99.90
4520;DHT22;2272;49.226;8.108;2022-10-12T13:49:26;19.50;99.90
4520;DHT22;2272;49.226;8.108;2022-10-12T13:51:54;19.60;99.90
4520;DHT22;2272;49.226;8.108;2022-10-12T13:54:23;19.70;99.90
4520;DHT22;2272;49.226;8.108;2022-10-12T13:56:55;19.70;99.90
4520;DHT22;2272;49.226;8.108;2022-10-12T13:59:24;19.60;99.90
4520;DHT22;2272;49.226;8.108;2022-10-12T14:01:54;19.50;99.90
4520;DHT22;2272;49.226;8.108;2022-10-12T14:04:21;19.50;99.90
4520;DHT22;2272;49.226;8.108;2022-10-12T14:06:54;19.50;99.90
4520;DHT22;2272;49.226;8.108;2022-10-12T14:09:23;19.50;99.90
4520;DHT22;2272;49.226;8.108;2022-10-12T14:11:52;19.50;99.90
4520;DHT22;2272;49.226;8.108;2022-10-12T14:14:27;19.50;99.90
4520;DHT22;2272;49.226;8.108;2022-10-12T14:16:55;19.40;99.90
4520;DHT22;2272;49.226;8.108;2022-10-12T14:19:32;19.30;99.90
4520;DHT22;2272;49.226;8.108;2022-10-12T14:22:00;19.40;99.90
4520;DHT22;2272;49.226;8.108;2022-10-12T14:24:27;19.40;99.90
4520;DHT22;2272;49.226;8.108;2022-10-12T14:26:56;19.40;99.90
4520;DHT22;2272;49.226;8.108;2022-10-12T14:29:29;19.40;99.90
4520;DHT22;2272;49.226;8.108;2022-10-12T14:31:58;19.50;99.90
4520;DHT22;2272;49.226;8.108;2022-10-12T14:34:34;19.50;99.90
4520;DHT22;2272;49.226;8.108;2022-10-12T14:37:03;19.70;99.90
4520;DHT22;2272;49.226;8.108;2022-10-12T14:39:31;19.70;99.90
4520;DHT22;2272;49.226;8.108;2022-10-12T14:42:00;19.70;99.90
4520;DHT22;2272;49.226;8.108;2022-10-12T14:44:30;19.70;99.90
4520;DHT22;2272;49.226;8.108;2022-10-12T14:47:14;19.60;99.90
4520;DHT22;2272;49.226;8.108;2022-10-12T14:49:43;19.50;99.90
4520;DHT22;2272;49.226;8.108;2022-10-12T14:52:16;19.50;99.90
4520;DHT22;2272;49.226;8.108;2022-10-12T14:54:48;19.50;99.90
4520;DHT22;2272;49.226;8.108;2022-10-12T14:57:16;19.60;99.90
4520;DHT22;2272;49.226;8.108;2022-10-12T14:59:45;19.60;99.90
4520;DHT22;2272;49.226;8.108;2022-10-12T15:02:14;19.50;99.90
4520;DHT22;2272;49.226;8.108;2022-10-12T15:04:42;19.50;99.90
4520;DHT22;2272;49.226;8.108;2022-10-12T15:07:13;19.40;99.90
4520;DHT22;2272;49.226;8.108;2022-10-12T15:09:41;19.30;99.90
4520;DHT22;2272;49.226;8.108;2022-10-12T15:12:10;19.30;99.90
4520;DHT22;2272;49.226;8.108;2022-10-12T15:14:37;19.30;99.90
4520;DHT22;2272;49.226;8.108;2022-10-12T15:17:05;19.20;99.90
4520;DHT22;2272;49.226;8.108;2022-10-12T15:19:32;19.10;99.90
4520;DHT22;2272;49.226;8.108;2022-10-12T15:21:59;19.00;99.90
4520;DHT22;2272;49.226;8.108;2022-10-12T15:24:26;18.80;99.90
4520;DHT22;2272;49.226;8.108;2022-10-12T15:26:52;18.70;99.90
4520;DHT22;2272;49.226;8.108;2022-10-12T15:29:19;18.60;99.90
4520;DHT22;2272;49.226;8.108;2022-10-12T15:31:46;18.50;99.90
4520;DHT22;2272;49.226;8.108;2022-10-12T15:34:14;18.40;99.90
4520;DHT22;2272;49.226;8.108;2022-10-12T15:36:41;18.30;99.90
4520;DHT22;2272;49.226;8.108;2022-10-12T15:39:08;18.20;99.90
4520;DHT22;2272;49.226;8.108;2022-10-12T15:41:35;18.00;99.90
4520;DHT22;2272;49.226;8.108;2022-10-12T15:44:02;17.80;99.90
4520;DHT22;2272;49.226;8.108;2022-10-12T15:46:29;17.70;99.90
4520;DHT22;2272;49.226;8.108;2022-10-12T15:48:56;17.30;99.90
4520;DHT22;2272;49.226;8.108;2022-10-12T15:51:24;17.10;99.90
4520;DHT22;2272;49.226;8.108;2022-10-12T15:53:52;16.90;99.90
4520;DHT22;2272;49.226;8.108;2022-10-12T15:56:20;16.60;99.90
4520;DHT22;2272;49.226;8.108;2022-10-12T15:58:47;16.40;99.90
4520;DHT22;2272;49.226;8.108;2022-10-12T16:01:16;16.30;99.90
4520;DHT22;2272;49.226;8.108;2022-10-12T16:03:43;16.10;99.90
4520;DHT22;2272;49.226;8.108;2022-10-12T16:06:11;16.00;99.90
4520;DHT22;2272;49.226;8.108;2022-10-12T16:08:39;15.90;99.90
4520;DHT22;2272;49.226;8.108;2022-10-12T16:11:08;15.80;99.90
4520;DHT22;2272;49.226;8.108;2022-10-12T16:13:36;15.70;99.90
4520;DHT22;2272;49.226;8.108;2022-10-12T16:16:03;15.60;99.90
4520;DHT22;2272;49.226;8.108;2022-10-12T16:18:30;15.50;99.90
4520;DHT22;2272;49.226;8.108;2022-10-12T16:20:57;15.30;99.90
4520;DHT22;2272;49.226;8.108;2022-10-12T16:23:26;15.20;99.90
4520;DHT22;2272;49.226;8.108;2022-10-12T16:25:55;15.10;99.90
4520;DHT22;2272;49.226;8.108;2022-10-12T16:28:23;15.00;99.90
4520;DHT22;2272;49.226;8.108;2022-10-12T16:30:50;14.80;99.90
4520;DHT22;2272;49.226;8.108;2022-10-12T16:33:17;14.60;99.90
4520;DHT22;2272;49.226;8.108;2022-10-12T16:35:44;14.50;99.90
4520;DHT22;2272;49.226;8.108;2022-10-12T16:38:11;14.30;99.90
4520;DHT22;2272;49.226;8.108;2022-10-12T16:40:39;14.10;99.90
4520;DHT22;2272;49.226;8.108;2022-10-12T16:43:08;14.00;99.90
4520;DHT22;2272;49.226;8.108;2022-10-12T16:45:35;13.80;99.90